| time (UTC) | temp F | wind direction | speed MPH | gust MPH | rain 1hr in | rain 24hr in | rain mn in | humidity % | barometer mb |
| 20260502152206 | 55 | 141 | 1.0 | 2.0 | 0.00 | 0.00 | 0.00 | 47 | 1010.4 |
| 20260502151704 | 55 | 213 | 1.0 | 3.0 | 0.00 | 0.00 | 0.00 | 47 | 1010.2 |
| 20260502151201 | 55 | 210 | 1.0 | 2.0 | 0.00 | 0.00 | 0.00 | 47 | 1010.4 |
| 20260502150658 | 54 | 208 | 0.0 | 3.0 | 0.00 | 0.00 | 0.00 | 48 | 1010.2 |
| 20260502150154 | 54 | 144 | 2.0 | 2.0 | 0.00 | 0.00 | 0.00 | 49 | 1010.1 |
| 20260502140118 | 48 | 190 | 2.0 | 3.0 | 0.00 | 0.00 | 0.00 | 53 | 1010.5 |
| 20260502130543 | 44 | 180 | 2.0 | 2.0 | 0.00 | 0.00 | 0.00 | 55 | 1010.8 |
| 20260502123526 | 42 | 208 | 5.0 | 6.0 | 0.00 | 0.00 | 0.00 | 56 | 1011.8 |
| 20260502123022 | 42 | 215 | 2.0 | 6.0 | 0.00 | 0.00 | 0.00 | 55 | 1011.7 |
| 20260502122519 | 42 | 190 | 3.0 | 5.0 | 0.00 | 0.00 | 0.00 | 55 | 1011.7 |
| 20260502122017 | 42 | 201 | 4.0 | 6.0 | 0.00 | 0.00 | 0.00 | 55 | 1011.7 |
| 20260502121514 | 42 | 214 | 5.0 | 9.0 | 0.00 | 0.00 | 0.00 | 55 | 1011.7 |
| 20260502121011 | 41 | 181 | 2.0 | 3.0 | 0.00 | 0.00 | 0.00 | 56 | 1011.8 |
| 20260502120507 | 41 | 232 | 3.0 | 3.0 | 0.00 | 0.00 | 0.00 | 56 | 1011.9 |
| 20260502115502 | 41 | 196 | 2.0 | 3.0 | 0.00 | 0.00 | 0.00 | 56 | 1012.0 |
| 20260502114958 | 42 | 224 | 2.0 | 5.0 | 0.00 | 0.00 | 0.00 | 55 | 1012.1 |
| 20260502114455 | 41 | 204 | 3.0 | 5.0 | 0.00 | 0.00 | 0.00 | 56 | 1012.3 |
| 20260502113952 | 41 | 171 | 2.0 | 5.0 | 0.00 | 0.00 | 0.00 | 57 | 1012.2 |
| 20260502113449 | 40 | 199 | 3.0 | 3.0 | 0.00 | 0.00 | 0.00 | 58 | 1012.3 |
| 20260502112948 | 39 | 189 | 1.0 | 2.0 | 0.00 | 0.00 | 0.00 | 59 | 1012.3 |
| 20260502112445 | 39 | 203 | 1.0 | 2.0 | 0.00 | 0.00 | 0.00 | 60 | 1012.4 |
| 20260502111942 | 38 | 202 | 3.0 | 3.0 | 0.00 | 0.00 | 0.00 | 61 | 1012.4 |
| 20260502111439 | 38 | 178 | 1.0 | 3.0 | 0.00 | 0.00 | 0.00 | 62 | 1012.7 |
| 20260502110937 | 38 | 194 | 1.0 | 2.0 | 0.00 | 0.00 | 0.00 | 63 | 1012.6 |
| 20260502110434 | 37 | 187 | 1.0 | 2.0 | 0.00 | 0.00 | 0.00 | 64 | 1012.8 |
| 20260502105931 | 37 | 184 | 1.0 | 1.0 | 0.00 | 0.00 | 0.00 | 64 | 1012.8 |
| 20260502105429 | 37 | 193 | 1.0 | 2.0 | 0.00 | 0.00 | 0.00 | 64 | 1012.9 |
| 20260502104927 | 38 | 182 | 1.0 | 2.0 | 0.00 | 0.00 | 0.00 | 63 | 1012.9 |
| 20260502104424 | 38 | 194 | 0.0 | 1.0 | 0.00 | 0.00 | 0.00 | 63 | 1013.3 |
| 20260502103921 | 38 | 186 | 0.0 | 1.0 | 0.00 | 0.00 | 0.00 | 63 | 1013.0 |
| 20260502103419 | 38 | 171 | 1.0 | 2.0 | 0.00 | 0.00 | 0.00 | 63 | 1013.1 |
| 20260502102915 | 38 | 188 | 0.0 | 2.0 | 0.00 | 0.00 | 0.00 | 62 | 1013.4 |
| 20260502102412 | 38 | 191 | 1.0 | 2.0 | 0.00 | 0.00 | 0.00 | 62 | 1013.3 |
| 20260502101909 | 38 | 192 | 1.0 | 1.0 | 0.00 | 0.00 | 0.00 | 62 | 1013.6 |
| 20260502101408 | 38 | 119 | 1.0 | 2.0 | 0.00 | 0.00 | 0.00 | 62 | 1013.3 |
| 20260502100905 | 38 | 151 | 1.0 | 1.0 | 0.00 | 0.00 | 0.00 | 62 | 1013.6 |
| 20260502100405 | 38 | 176 | 2.0 | 2.0 | 0.00 | 0.00 | 0.00 | 61 | 1013.6 |
| 20260502091338 | 41 | 120 | 4.0 | 5.0 | 0.00 | 0.00 | 0.00 | 55 | 1014.3 |
| 20260502090836 | 41 | 117 | 1.0 | 2.0 | 0.00 | 0.00 | 0.00 | 55 | 1014.4 |
| 20260502090332 | 42 | 220 | 1.0 | 3.0 | 0.00 | 0.00 | 0.00 | 53 | 1014.4 |
| 20260502071227 | 41 | 151 | 2.0 | 3.0 | 0.00 | 0.00 | 0.00 | 57 | 1016.3 |
| 20260502070726 | 41 | 165 | 1.0 | 2.0 | 0.00 | 0.00 | 0.00 | 57 | 1016.6 |
| 20260502070223 | 41 | 161 | 1.0 | 2.0 | 0.00 | 0.00 | 0.00 | 57 | 1016.5 |
| 20260502065721 | 41 | 182 | 1.0 | 2.0 | 0.00 | 0.00 | 0.00 | 57 | 1016.1 |
| 20260502065219 | 41 | 192 | 1.0 | 1.0 | 0.00 | 0.00 | 0.00 | 56 | 1016.4 |
| 20260502064717 | 41 | 161 | 2.0 | 3.0 | 0.00 | 0.00 | 0.00 | 56 | 1016.4 |
| 20260502064214 | 41 | 191 | 1.0 | 2.0 | 0.00 | 0.00 | 0.00 | 56 | 1016.6 |
| 20260502063712 | 42 | 211 | 2.0 | 2.0 | 0.00 | 0.00 | 0.00 | 55 | 1016.8 |
| 20260502063210 | 42 | 192 | 1.0 | 3.0 | 0.00 | 0.00 | 0.00 | 55 | 1016.6 |
| 20260502062706 | 42 | 186 | 1.0 | 2.0 | 0.00 | 0.00 | 0.00 | 55 | 1016.7 |
| 20260502062204 | 42 | 183 | 1.0 | 2.0 | 0.00 | 0.00 | 0.00 | 55 | 1016.6 |
| 20260502061702 | 42 | 185 | 2.0 | 3.0 | 0.00 | 0.00 | 0.00 | 55 | 1016.7 |
| 20260502061159 | 42 | 168 | 3.0 | 3.0 | 0.00 | 0.00 | 0.00 | 54 | 1016.7 |
| 20260502060654 | 42 | 160 | 2.0 | 2.0 | 0.00 | 0.00 | 0.00 | 54 | 1016.9 |
| 20260502060151 | 42 | 146 | 2.0 | 2.0 | 0.00 | 0.00 | 0.00 | 54 | 1016.9 |
| 20260502055649 | 42 | 178 | 1.0 | 2.0 | 0.00 | 0.00 | 0.00 | 53 | 1017.0 |
| 20260502055147 | 43 | 202 | 0.0 | 1.0 | 0.00 | 0.00 | 0.00 | 53 | 1016.9 |
| 20260502054646 | 43 | 191 | 1.0 | 3.0 | 0.00 | 0.00 | 0.00 | 52 | 1016.9 |
| 20260502054142 | 43 | 191 | 1.0 | 1.0 | 0.00 | 0.00 | 0.00 | 52 | 1016.9 |
| 20260502053640 | 43 | 191 | 1.0 | 1.0 | 0.00 | 0.00 | 0.00 | 51 | 1017.2 |
| 20260502053137 | 43 | 187 | 1.0 | 2.0 | 0.00 | 0.00 | 0.00 | 51 | 1017.4 |
| 20260502052635 | 43 | 195 | 1.0 | 1.0 | 0.00 | 0.00 | 0.00 | 51 | 1017.3 |
| 20260502052133 | 43 | 174 | 1.0 | 2.0 | 0.00 | 0.00 | 0.00 | 50 | 1017.4 |
| 20260502051631 | 44 | 192 | 0.0 | 1.0 | 0.00 | 0.00 | 0.00 | 50 | 1017.4 |
| 20260502051129 | 44 | 189 | 1.0 | 2.0 | 0.00 | 0.00 | 0.00 | 50 | 1017.4 |
| 20260502050625 | 44 | 192 | 1.0 | 1.0 | 0.00 | 0.00 | 0.00 | 49 | 1017.5 |
| 20260502050121 | 44 | 202 | 1.0 | 1.0 | 0.00 | 0.00 | 0.00 | 49 | 1017.6 |
| 20260502045618 | 44 | 184 | 0.0 | 2.0 | 0.00 | 0.00 | 0.00 | 48 | 1017.4 |
| 20260502045115 | 44 | 212 | 0.0 | 1.0 | 0.00 | 0.00 | 0.00 | 48 | 1017.7 |
| 20260502044612 | 44 | 206 | 0.0 | 1.0 | 0.00 | 0.00 | 0.00 | 48 | 1017.6 |
| 20260502044108 | 45 | 174 | 1.0 | 1.0 | 0.00 | 0.00 | 0.00 | 47 | 1017.6 |
| 20260502043606 | 45 | 171 | 1.0 | 2.0 | 0.00 | 0.00 | 0.00 | 47 | 1017.7 |
| 20260502043102 | 45 | 203 | 0.0 | 2.0 | 0.00 | 0.00 | 0.00 | 46 | 1017.8 |
| 20260502042557 | 45 | 201 | 0.0 | 3.0 | 0.00 | 0.00 | 0.00 | 46 | 1017.8 |
| 20260502042055 | 46 | 188 | 0.0 | 2.0 | 0.00 | 0.00 | 0.00 | 46 | 1017.8 |
| 20260502041552 | 46 | 186 | 1.0 | 2.0 | 0.00 | 0.00 | 0.00 | 45 | 1018.0 |
| 20260502041049 | 46 | 168 | 1.0 | 3.0 | 0.00 | 0.00 | 0.00 | 45 | 1017.9 |
| 20260502040545 | 46 | 186 | 1.0 | 2.0 | 0.00 | 0.00 | 0.00 | 45 | 1017.7 |
| 20260502040043 | 46 | 184 | 1.0 | 1.0 | 0.00 | 0.00 | 0.00 | 45 | 1017.8 |
| 20260502035538 | 46 | 189 | 1.0 | 2.0 | 0.00 | 0.00 | 0.00 | 44 | 1017.8 |
| 20260502035036 | 47 | 192 | 1.0 | 1.0 | 0.00 | 0.00 | 0.00 | 44 | 1017.8 |
| 20260502034535 | 47 | 183 | 1.0 | 2.0 | 0.00 | 0.00 | 0.00 | 43 | 1017.8 |
| 20260502034032 | 47 | 191 | 0.0 | 1.0 | 0.00 | 0.00 | 0.00 | 43 | 1017.6 |
| 20260502033530 | 48 | 196 | 0.0 | 1.0 | 0.00 | 0.00 | 0.00 | 43 | 1018.0 |
| 20260502033027 | 48 | 206 | 0.0 | 2.0 | 0.00 | 0.00 | 0.00 | 43 | 1017.7 |
| 20260502032523 | 48 | 195 | 0.0 | 2.0 | 0.00 | 0.00 | 0.00 | 43 | 1017.9 |
| 20260502032020 | 48 | 169 | 3.0 | 3.0 | 0.00 | 0.00 | 0.00 | 42 | 1017.9 |
| 20260502031518 | 49 | 197 | 1.0 | 1.0 | 0.00 | 0.00 | 0.00 | 42 | 1017.8 |
| 20260502031016 | 49 | 197 | 2.0 | 2.0 | 0.00 | 0.00 | 0.00 | 41 | 1017.8 |
| 20260502030514 | 49 | 172 | 0.0 | 2.0 | 0.00 | 0.00 | 0.00 | 42 | 1017.6 |
| 20260502030012 | 49 | 166 | 1.0 | 2.0 | 0.00 | 0.00 | 0.00 | 42 | 1017.7 |
| 20260502025509 | 49 | 156 | 2.0 | 3.0 | 0.00 | 0.00 | 0.00 | 42 | 1017.8 |
| 20260502025007 | 50 | 215 | 1.0 | 2.0 | 0.00 | 0.00 | 0.00 | 42 | 1017.8 |
| 20260502024504 | 50 | 182 | 0.0 | 2.0 | 0.00 | 0.00 | 0.00 | 41 | 1017.9 |
| 20260502024003 | 50 | 180 | 3.0 | 5.0 | 0.00 | 0.00 | 0.00 | 41 | 1017.6 |
| 20260502023459 | 50 | 191 | 0.0 | 1.0 | 0.00 | 0.00 | 0.00 | 41 | 1017.8 |
| 20260502022957 | 50 | 186 | 0.0 | 1.0 | 0.00 | 0.00 | 0.00 | 42 | 1017.7 |
| 20260502022453 | 51 | 190 | 1.0 | 2.0 | 0.00 | 0.00 | 0.00 | 41 | 1017.8 |
| 20260502021950 | 51 | 168 | 1.0 | 2.0 | 0.00 | 0.00 | 0.00 | 41 | 1017.8 |
| 20260502021448 | 51 | 167 | 1.0 | 1.0 | 0.00 | 0.00 | 0.00 | 41 | 1017.6 |
| 20260502020944 | 51 | 162 | 1.0 | 1.0 | 0.00 | 0.00 | 0.00 | 41 | 1017.7 |
| 20260502020443 | 51 | 173 | 1.0 | 2.0 | 0.00 | 0.00 | 0.00 | 40 | 1017.8 |
| 20260502015939 | 52 | 171 | 1.0 | 1.0 | 0.00 | 0.00 | 0.00 | 40 | 1017.8 |
| 20260502015437 | 52 | 183 | 0.0 | 1.0 | 0.00 | 0.00 | 0.00 | 40 | 1017.7 |
| 20260502014933 | 52 | 133 | 0.0 | 2.0 | 0.00 | 0.00 | 0.00 | 39 | 1017.7 |
| 20260502014430 | 52 | 188 | 0.0 | 0.0 | 0.00 | 0.00 | 0.00 | 39 | 1017.7 |
| 20260502013926 | 53 | 191 | 0.0 | 2.0 | 0.00 | 0.00 | 0.00 | 39 | 1017.7 |
| 20260502013422 | 53 | 194 | 1.0 | 2.0 | 0.00 | 0.00 | 0.00 | 38 | 1017.9 |
| 20260502012919 | 53 | 183 | 1.0 | 3.0 | 0.00 | 0.00 | 0.00 | 38 | 1017.8 |
| 20260502012417 | 53 | 154 | 1.0 | 2.0 | 0.00 | 0.00 | 0.00 | 38 | 1018.0 |
| 20260502011914 | 54 | 195 | 1.0 | 1.0 | 0.00 | 0.00 | 0.00 | 37 | 1018.0 |
| 20260502011410 | 54 | 194 | 1.0 | 1.0 | 0.00 | 0.00 | 0.00 | 37 | 1017.9 |
| 20260502010907 | 54 | 177 | 0.0 | 2.0 | 0.00 | 0.00 | 0.00 | 37 | 1017.9 |
| 20260502010404 | 54 | 138 | 0.0 | 2.0 | 0.00 | 0.00 | 0.00 | 37 | 1018.0 |
| 20260502005900 | 55 | 171 | 0.0 | 2.0 | 0.00 | 0.00 | 0.00 | 37 | 1018.0 |
| 20260502005358 | 55 | 120 | 1.0 | 2.0 | 0.00 | 0.00 | 0.00 | 37 | 1018.1 |
| 20260502004856 | 55 | 210 | 0.0 | 2.0 | 0.00 | 0.00 | 0.00 | 36 | 1018.1 |
| 20260502004351 | 55 | 212 | 1.0 | 1.0 | 0.00 | 0.00 | 0.00 | 36 | 1018.2 |
| 20260502003849 | 55 | 187 | 0.0 | 1.0 | 0.00 | 0.00 | 0.00 | 36 | 1018.3 |
| 20260502003346 | 56 | 205 | 0.0 | 0.0 | 0.00 | 0.00 | 0.00 | 35 | 1018.2 |
| 20260502002842 | 56 | 210 | 0.0 | 0.0 | 0.00 | 0.00 | 0.00 | 34 | 1018.3 |
| 20260502002340 | 57 | 201 | 0.0 | 1.0 | 0.00 | 0.00 | 0.00 | 33 | 1018.3 |
| 20260502001837 | 57 | 215 | 0.0 | 1.0 | 0.00 | 0.00 | 0.00 | 34 | 1018.6 |
| 20260502001335 | 57 | 217 | 1.0 | 2.0 | 0.00 | 0.00 | 0.00 | 33 | 1018.3 |
| 20260502000832 | 57 | 197 | 0.0 | 0.0 | 0.00 | 0.00 | 0.00 | 33 | 1018.5 |
| 20260502000332 | 57 | 218 | 0.0 | 0.0 | 0.00 | 0.00 | 0.00 | 32 | 1018.5 |
| 20260501235826 | 59 | 315 | 1.0 | 3.0 | 0.00 | 0.00 | 0.00 | 32 | 1018.6 |
| 20260501235322 | 59 | 208 | 0.0 | 0.0 | 0.00 | 0.00 | 0.00 | 31 | 1018.7 |
| 20260501234817 | 59 | 241 | 0.0 | 1.0 | 0.00 | 0.00 | 0.00 | 32 | 1018.6 |
| 20260501234315 | 59 | 193 | 0.0 | 2.0 | 0.00 | 0.00 | 0.00 | 31 | 1018.4 |
| 20260501233813 | 59 | 231 | 1.0 | 2.0 | 0.00 | 0.00 | 0.00 | 31 | 1018.7 |
| 20260501233310 | 60 | 166 | 0.0 | 1.0 | 0.00 | 0.00 | 0.00 | 32 | 1018.8 |
| 20260501232805 | 60 | 217 | 0.0 | 0.0 | 0.00 | 0.00 | 0.00 | 31 | 1018.8 |
| 20260501232305 | 60 | 61 | 1.0 | 1.0 | 0.00 | 0.00 | 0.00 | 31 | 1018.8 |
| 20260501231800 | 58 | 198 | 0.0 | 2.0 | 0.00 | 0.00 | 0.00 | 32 | 1018.9 |
| 20260501231258 | 59 | 205 | 0.0 | 1.0 | 0.00 | 0.00 | 0.00 | 33 | 1019.0 |
| 20260501230756 | 59 | 210 | 0.0 | 0.0 | 0.00 | 0.00 | 0.00 | 32 | 1018.9 |
| 20260501230255 | 59 | 177 | 2.0 | 2.0 | 0.00 | 0.00 | 0.00 | 33 | 1019.1 |
| 20260501225752 | 59 | 181 | 2.0 | 2.0 | 0.00 | 0.00 | 0.00 | 32 | 1019.1 |
| 20260501225250 | 58 | 52 | 2.0 | 3.0 | 0.00 | 0.00 | 0.00 | 31 | 1019.2 |
| 20260501224745 | 58 | 65 | 1.0 | 2.0 | 0.00 | 0.00 | 0.00 | 33 | 1019.3 |
| 20260501224243 | 58 | 330 | 2.0 | 3.0 | 0.00 | 0.00 | 0.00 | 32 | 1019.2 |
| 20260501223739 | 59 | 303 | 3.0 | 5.0 | 0.00 | 0.00 | 0.00 | 31 | 1019.2 |
| 20260501223235 | 59 | 232 | 3.0 | 3.0 | 0.00 | 0.00 | 0.00 | 31 | 1019.1 |
| 20260501222731 | 59 | 347 | 1.0 | 3.0 | 0.00 | 0.00 | 0.00 | 32 | 1019.3 |
| 20260501222229 | 59 | 145 | 0.0 | 1.0 | 0.00 | 0.00 | 0.00 | 31 | 1019.1 |
| 20260501221726 | 58 | 274 | 1.0 | 1.0 | 0.00 | 0.00 | 0.00 | 32 | 1019.3 |
| 20260501221223 | 58 | 260 | 2.0 | 2.0 | 0.00 | 0.00 | 0.00 | 32 | 1019.5 |
| 20260501220720 | 58 | 6 | 2.0 | 2.0 | 0.00 | 0.00 | 0.00 | 32 | 1019.5 |
| 20260501220218 | 58 | 203 | 1.0 | 2.0 | 0.00 | 0.00 | 0.00 | 32 | 1019.3 |
| 20260501215715 | 58 | 297 | 0.0 | 2.0 | 0.00 | 0.00 | 0.00 | 32 | 1019.4 |
| 20260501215209 | 57 | 312 | 1.0 | 3.0 | 0.00 | 0.00 | 0.00 | 34 | 1019.6 |
| 20260501214704 | 56 | 198 | 1.0 | 1.0 | 0.00 | 0.00 | 0.00 | 33 | 1019.8 |
| 20260501214201 | 57 | 229 | 0.0 | 2.0 | 0.00 | 0.00 | 0.00 | 34 | 1019.7 |
| 20260501213657 | 56 | 50 | 1.0 | 1.0 | 0.00 | 0.00 | 0.00 | 35 | 1019.7 |
| 20260501213153 | 56 | 156 | 0.0 | 3.0 | 0.00 | 0.00 | 0.00 | 34 | 1019.7 |
| 20260501212650 | 56 | 173 | 3.0 | 3.0 | 0.00 | 0.00 | 0.00 | 36 | 1019.9 |
| 20260501212147 | 55 | 117 | 1.0 | 3.0 | 0.00 | 0.00 | 0.00 | 35 | 1019.9 |
| 20260501211643 | 56 | 39 | 2.0 | 2.0 | 0.00 | 0.00 | 0.00 | 35 | 1020.0 |
| 20260501211141 | 55 | 201 | 0.0 | 1.0 | 0.00 | 0.00 | 0.00 | 36 | 1020.1 |
| 20260501210637 | 56 | 349 | 2.0 | 3.0 | 0.00 | 0.00 | 0.00 | 35 | 1020.0 |
| 20260501210135 | 56 | 203 | 0.0 | 1.0 | 0.00 | 0.00 | 0.00 | 36 | 1020.2 |
| 20260501205631 | 56 | 302 | 2.0 | 3.0 | 0.00 | 0.00 | 0.00 | 36 | 1020.2 |
| 20260501205128 | 56 | 26 | 1.0 | 1.0 | 0.00 | 0.00 | 0.00 | 36 | 1020.3 |
| 20260501204625 | 55 | 195 | 1.0 | 1.0 | 0.00 | 0.00 | 0.00 | 36 | 1020.2 |
| 20260501204121 | 56 | 93 | 2.0 | 3.0 | 0.00 | 0.00 | 0.00 | 36 | 1020.2 |
| 20260501203618 | 55 | 118 | 2.0 | 3.0 | 0.00 | 0.00 | 0.00 | 37 | 1020.2 |
| 20260501203115 | 55 | 20 | 4.0 | 5.0 | 0.00 | 0.00 | 0.00 | 36 | 1020.3 |
| 20260501202612 | 56 | 120 | 1.0 | 3.0 | 0.00 | 0.00 | 0.00 | 36 | 1020.5 |
| 20260501202109 | 55 | 97 | 0.0 | 2.0 | 0.00 | 0.00 | 0.00 | 36 | 1020.3 |
| 20260501201606 | 55 | 299 | 1.0 | 1.0 | 0.00 | 0.00 | 0.00 | 36 | 1020.5 |
| 20260501201102 | 55 | 123 | 1.0 | 2.0 | 0.00 | 0.00 | 0.00 | 36 | 1020.6 |
| 20260501200559 | 56 | 356 | 5.0 | 7.0 | 0.00 | 0.00 | 0.00 | 35 | 1020.6 |
| 20260501200057 | 56 | 220 | 0.0 | 1.0 | 0.00 | 0.00 | 0.00 | 36 | 1021.0 |
| 20260501195554 | 57 | 217 | 0.0 | 1.0 | 0.00 | 0.00 | 0.00 | 35 | 1020.7 |
| 20260501195049 | 57 | 223 | 0.0 | 2.0 | 0.00 | 0.00 | 0.00 | 35 | 1020.8 |
| 20260501194545 | 56 | 180 | 1.0 | 1.0 | 0.00 | 0.00 | 0.00 | 36 | 1020.3 |
| 20260501194041 | 55 | 199 | 2.0 | 3.0 | 0.00 | 0.00 | 0.00 | 36 | 1020.7 |
| 20260501193538 | 55 | 219 | 1.0 | 3.0 | 0.00 | 0.00 | 0.00 | 37 | 1020.8 |
| 20260501193037 | 54 | 287 | 1.0 | 1.0 | 0.00 | 0.00 | 0.00 | 36 | 1020.8 |
| 20260501192533 | 55 | 246 | 1.0 | 1.0 | 0.00 | 0.00 | 0.00 | 36 | 1020.6 |
| 20260501192032 | 55 | 233 | 0.0 | 1.0 | 0.00 | 0.00 | 0.00 | 37 | 1020.9 |
| 20260501191528 | 55 | 215 | 2.0 | 3.0 | 0.00 | 0.00 | 0.00 | 36 | 1021.1 |
| 20260501191026 | 54 | 200 | 2.0 | 5.0 | 0.00 | 0.00 | 0.00 | 38 | 1020.9 |
| 20260501190521 | 53 | 231 | 2.0 | 5.0 | 0.00 | 0.00 | 0.00 | 39 | 1021.1 |
| 20260501190017 | 53 | 131 | 3.0 | 3.0 | 0.00 | 0.00 | 0.00 | 38 | 1021.2 |
| 20260501185513 | 53 | 182 | 0.0 | 2.0 | 0.00 | 0.00 | 0.00 | 38 | 1021.0 |
| 20260501185009 | 55 | 46 | 3.0 | 5.0 | 0.00 | 0.00 | 0.00 | 36 | 1021.4 |
| 20260501184505 | 54 | 269 | 1.0 | 2.0 | 0.00 | 0.00 | 0.00 | 36 | 1021.2 |
| 20260501184000 | 53 | 215 | 0.0 | 2.0 | 0.00 | 0.00 | 0.00 | 38 | 1021.1 |
| 20260501183458 | 53 | 217 | 1.0 | 3.0 | 0.00 | 0.00 | 0.00 | 37 | 1021.3 |
| 20260501182953 | 54 | 219 | 0.0 | 3.0 | 0.00 | 0.00 | 0.00 | 38 | 1021.4 |
| 20260501182450 | 52 | 234 | 1.0 | 3.0 | 0.00 | 0.00 | 0.00 | 39 | 1021.5 |
| 20260501181947 | 53 | 288 | 2.0 | 6.0 | 0.00 | 0.00 | 0.00 | 39 | 1021.4 |
| 20260501181444 | 53 | 64 | 1.0 | 3.0 | 0.00 | 0.00 | 0.00 | 39 | 1021.6 |
| 20260501180942 | 53 | 194 | 1.0 | 2.0 | 0.00 | 0.00 | 0.00 | 39 | 1021.6 |
| 20260501180439 | 53 | 296 | 2.0 | 3.0 | 0.00 | 0.00 | 0.00 | 39 | 1021.5 |
| 20260501175935 | 53 | 177 | 3.0 | 3.0 | 0.00 | 0.00 | 0.00 | 39 | 1021.7 |
| 20260501175432 | 52 | 203 | 1.0 | 2.0 | 0.00 | 0.00 | 0.00 | 40 | 1021.8 |
| 20260501174929 | 52 | 115 | 2.0 | 2.0 | 0.00 | 0.00 | 0.00 | 37 | 1021.7 |
| 20260501174427 | 52 | 197 | 1.0 | 2.0 | 0.00 | 0.00 | 0.00 | 40 | 1021.7 |
| 20260501173924 | 51 | 66 | 0.0 | 2.0 | 0.00 | 0.00 | 0.00 | 41 | 1021.8 |
| 20260501173421 | 51 | 66 | 2.0 | 3.0 | 0.00 | 0.00 | 0.00 | 39 | 1021.9 |
| 20260501172916 | 51 | 213 | 1.0 | 3.0 | 0.00 | 0.00 | 0.00 | 40 | 1022.0 |
| 20260501172413 | 52 | 219 | 2.0 | 2.0 | 0.00 | 0.00 | 0.00 | 40 | 1021.9 |
| 20260501171908 | 53 | 206 | 0.0 | 2.0 | 0.00 | 0.00 | 0.00 | 39 | 1021.7 |
| 20260501171404 | 52 | 200 | 1.0 | 2.0 | 0.00 | 0.00 | 0.00 | 40 | 1022.0 |
| 20260501170901 | 52 | 153 | 1.0 | 2.0 | 0.00 | 0.00 | 0.00 | 40 | 1022.0 |
| 20260501170358 | 51 | 211 | 0.0 | 1.0 | 0.00 | 0.00 | 0.00 | 40 | 1021.9 |
| 20260501165856 | 50 | 185 | 0.0 | 2.0 | 0.00 | 0.00 | 0.00 | 41 | 1021.9 |
| 20260501165353 | 50 | 200 | 1.0 | 1.0 | 0.00 | 0.00 | 0.00 | 42 | 1022.0 |
| 20260501164851 | 50 | 222 | 0.0 | 2.0 | 0.00 | 0.00 | 0.00 | 41 | 1021.8 |
| 20260501164349 | 50 | 256 | 2.0 | 6.0 | 0.00 | 0.00 | 0.00 | 42 | 1022.0 |
| 20260501163844 | 50 | 187 | 1.0 | 2.0 | 0.00 | 0.00 | 0.00 | 42 | 1022.0 |
| 20260501163341 | 49 | 193 | 2.0 | 3.0 | 0.00 | 0.00 | 0.00 | 44 | 1022.1 |
| 20260501162838 | 50 | 48 | 2.0 | 3.0 | 0.00 | 0.00 | 0.00 | 43 | 1022.1 |
| 20260501162334 | 49 | 346 | 3.0 | 5.0 | 0.00 | 0.00 | 0.00 | 43 | 1022.1 |
| 20260501161831 | 49 | 225 | 1.0 | 5.0 | 0.00 | 0.00 | 0.00 | 43 | 1022.2 |
| 20260501161329 | 49 | 236 | 1.0 | 1.0 | 0.00 | 0.00 | 0.00 | 44 | 1022.2 |
| 20260501160825 | 48 | 218 | 0.0 | 2.0 | 0.00 | 0.00 | 0.00 | 44 | 1022.3 |
| 20260501160321 | 48 | 230 | 2.0 | 2.0 | 0.00 | 0.00 | 0.00 | 44 | 1022.3 |
| 20260501155819 | 49 | 224 | 1.0 | 1.0 | 0.00 | 0.00 | 0.00 | 46 | 1022.2 |
| 20260501155316 | 48 | 156 | 2.0 | 2.0 | 0.00 | 0.00 | 0.00 | 46 | 1022.3 |
| 20260501154813 | 47 | 187 | 1.0 | 2.0 | 0.00 | 0.00 | 0.00 | 46 | 1022.2 |
| 20260501154310 | 46 | 36 | 1.0 | 2.0 | 0.00 | 0.00 | 0.00 | 48 | 1022.5 |
| 20260501153807 | 46 | 9 | 2.0 | 6.0 | 0.00 | 0.00 | 0.00 | 48 | 1022.3 |
| 20260501153305 | 46 | 206 | 1.0 | 1.0 | 0.00 | 0.00 | 0.00 | 49 | 1022.3 |